sensor_id;sensor_type;location;lat;lon;timestamp;P1;durP1;ratioP1;P2;durP2;ratioP2
21034;SDS011;10676;50.848;3.272;2023-11-22T00:00:27;45.35;;;34.38;;
21034;SDS011;10676;50.848;3.272;2023-11-22T00:02:53;43.20;;;34.35;;
21034;SDS011;10676;50.848;3.272;2023-11-22T00:05:18;42.53;;;35.03;;
21034;SDS011;10676;50.848;3.272;2023-11-22T00:07:44;45.95;;;35.13;;
21034;SDS011;10676;50.848;3.272;2023-11-22T00:10:10;45.90;;;35.63;;
21034;SDS011;10676;50.848;3.272;2023-11-22T00:12:35;47.50;;;34.17;;
21034;SDS011;10676;50.848;3.272;2023-11-22T00:15:03;47.50;;;35.17;;
21034;SDS011;10676;50.848;3.272;2023-11-22T00:17:31;45.08;;;35.38;;
21034;SDS011;10676;50.848;3.272;2023-11-22T00:19:57;45.40;;;37.00;;
21034;SDS011;10676;50.848;3.272;2023-11-22T00:22:25;46.22;;;36.35;;
21034;SDS011;10676;50.848;3.272;2023-11-22T00:24:52;52.78;;;37.20;;
21034;SDS011;10676;50.848;3.272;2023-11-22T00:27:18;51.03;;;37.55;;
21034;SDS011;10676;50.848;3.272;2023-11-22T00:29:44;53.85;;;39.00;;
21034;SDS011;10676;50.848;3.272;2023-11-22T00:32:11;53.90;;;39.08;;
21034;SDS011;10676;50.848;3.272;2023-11-22T00:34:37;46.97;;;37.97;;
21034;SDS011;10676;50.848;3.272;2023-11-22T00:37:02;51.72;;;37.83;;
21034;SDS011;10676;50.848;3.272;2023-11-22T00:39:28;53.85;;;38.47;;
21034;SDS011;10676;50.848;3.272;2023-11-22T00:41:54;53.45;;;39.58;;
21034;SDS011;10676;50.848;3.272;2023-11-22T00:44:20;54.13;;;39.25;;
21034;SDS011;10676;50.848;3.272;2023-11-22T00:46:46;54.70;;;38.92;;
21034;SDS011;10676;50.848;3.272;2023-11-22T00:49:12;56.10;;;39.38;;
21034;SDS011;10676;50.848;3.272;2023-11-22T00:51:38;63.63;;;41.53;;
21034;SDS011;10676;50.848;3.272;2023-11-22T00:54:04;60.60;;;40.22;;
21034;SDS011;10676;50.848;3.272;2023-11-22T00:56:30;60.33;;;40.85;;
21034;SDS011;10676;50.848;3.272;2023-11-22T00:58:55;55.40;;;40.47;;
21034;SDS011;10676;50.848;3.272;2023-11-22T01:01:24;67.60;;;43.25;;
21034;SDS011;10676;50.848;3.272;2023-11-22T01:03:50;69.80;;;44.30;;
21034;SDS011;10676;50.848;3.272;2023-11-22T01:06:16;65.65;;;43.00;;
21034;SDS011;10676;50.848;3.272;2023-11-22T01:08:43;66.43;;;43.58;;
21034;SDS011;10676;50.848;3.272;2023-11-22T01:11:08;67.10;;;43.70;;
21034;SDS011;10676;50.848;3.272;2023-11-22T01:13:34;66.18;;;44.28;;
21034;SDS011;10676;50.848;3.272;2023-11-22T01:16:09;65.35;;;45.70;;
21034;SDS011;10676;50.848;3.272;2023-11-22T01:18:35;66.28;;;44.65;;
21034;SDS011;10676;50.848;3.272;2023-11-22T01:21:01;66.38;;;45.03;;
21034;SDS011;10676;50.848;3.272;2023-11-22T01:23:28;63.10;;;45.83;;
21034;SDS011;10676;50.848;3.272;2023-11-22T01:25:53;64.80;;;45.22;;
21034;SDS011;10676;50.848;3.272;2023-11-22T01:28:19;69.72;;;44.70;;
21034;SDS011;10676;50.848;3.272;2023-11-22T01:30:45;76.70;;;45.40;;
21034;SDS011;10676;50.848;3.272;2023-11-22T01:33:11;67.90;;;44.13;;
21034;SDS011;10676;50.848;3.272;2023-11-22T01:35:37;75.80;;;46.17;;
21034;SDS011;10676;50.848;3.272;2023-11-22T01:38:03;76.78;;;45.80;;
21034;SDS011;10676;50.848;3.272;2023-11-22T01:40:30;74.07;;;47.08;;
21034;SDS011;10676;50.848;3.272;2023-11-22T01:42:56;69.45;;;45.13;;
21034;SDS011;10676;50.848;3.272;2023-11-22T01:45:22;85.05;;;47.30;;
21034;SDS011;10676;50.848;3.272;2023-11-22T01:47:48;70.70;;;44.78;;
21034;SDS011;10676;50.848;3.272;2023-11-22T01:50:13;70.63;;;43.33;;
21034;SDS011;10676;50.848;3.272;2023-11-22T01:52:39;72.90;;;43.40;;
21034;SDS011;10676;50.848;3.272;2023-11-22T01:55:06;74.63;;;44.13;;
21034;SDS011;10676;50.848;3.272;2023-11-22T01:57:34;68.07;;;41.92;;
21034;SDS011;10676;50.848;3.272;2023-11-22T02:00:04;66.85;;;42.78;;
21034;SDS011;10676;50.848;3.272;2023-11-22T02:02:32;72.53;;;42.33;;
21034;SDS011;10676;50.848;3.272;2023-11-22T02:04:58;71.57;;;44.25;;
21034;SDS011;10676;50.848;3.272;2023-11-22T02:07:24;68.20;;;42.90;;
21034;SDS011;10676;50.848;3.272;2023-11-22T02:09:52;77.28;;;43.35;;
21034;SDS011;10676;50.848;3.272;2023-11-22T02:12:18;74.38;;;45.47;;
21034;SDS011;10676;50.848;3.272;2023-11-22T02:14:45;75.45;;;44.42;;
21034;SDS011;10676;50.848;3.272;2023-11-22T02:17:10;71.57;;;44.67;;
21034;SDS011;10676;50.848;3.272;2023-11-22T02:19:37;71.60;;;44.85;;
21034;SDS011;10676;50.848;3.272;2023-11-22T02:22:03;78.27;;;43.50;;
21034;SDS011;10676;50.848;3.272;2023-11-22T02:24:28;79.03;;;44.53;;
21034;SDS011;10676;50.848;3.272;2023-11-22T02:26:54;77.93;;;44.38;;
21034;SDS011;10676;50.848;3.272;2023-11-22T02:29:20;75.75;;;45.17;;
21034;SDS011;10676;50.848;3.272;2023-11-22T02:31:47;83.03;;;44.55;;
21034;SDS011;10676;50.848;3.272;2023-11-22T02:34:13;79.63;;;46.13;;
21034;SDS011;10676;50.848;3.272;2023-11-22T02:36:41;72.90;;;44.63;;
21034;SDS011;10676;50.848;3.272;2023-11-22T02:39:08;86.32;;;45.08;;
21034;SDS011;10676;50.848;3.272;2023-11-22T02:41:34;92.95;;;46.40;;
21034;SDS011;10676;50.848;3.272;2023-11-22T02:44:00;102.20;;;45.53;;
21034;SDS011;10676;50.848;3.272;2023-11-22T02:46:26;81.60;;;45.75;;
21034;SDS011;10676;50.848;3.272;2023-11-22T02:48:52;83.77;;;47.07;;
21034;SDS011;10676;50.848;3.272;2023-11-22T02:51:19;80.35;;;48.05;;
21034;SDS011;10676;50.848;3.272;2023-11-22T02:53:46;82.80;;;48.10;;
21034;SDS011;10676;50.848;3.272;2023-11-22T02:56:13;83.60;;;49.28;;
21034;SDS011;10676;50.848;3.272;2023-11-22T02:58:40;78.07;;;48.75;;
21034;SDS011;10676;50.848;3.272;2023-11-22T03:01:06;87.07;;;51.87;;
21034;SDS011;10676;50.848;3.272;2023-11-22T03:03:32;87.30;;;56.17;;
21034;SDS011;10676;50.848;3.272;2023-11-22T03:05:59;96.93;;;59.08;;
21034;SDS011;10676;50.848;3.272;2023-11-22T03:08:24;102.05;;;64.03;;
21034;SDS011;10676;50.848;3.272;2023-11-22T03:10:50;92.28;;;64.07;;
21034;SDS011;10676;50.848;3.272;2023-11-22T03:13:16;93.22;;;63.63;;
21034;SDS011;10676;50.848;3.272;2023-11-22T03:15:42;103.22;;;65.45;;
21034;SDS011;10676;50.848;3.272;2023-11-22T03:18:08;100.82;;;68.63;;
21034;SDS011;10676;50.848;3.272;2023-11-22T03:20:33;106.75;;;69.35;;
21034;SDS011;10676;50.848;3.272;2023-11-22T03:22:59;98.60;;;69.72;;
21034;SDS011;10676;50.848;3.272;2023-11-22T03:25:25;104.38;;;71.28;;
21034;SDS011;10676;50.848;3.272;2023-11-22T03:27:51;100.10;;;70.60;;
21034;SDS011;10676;50.848;3.272;2023-11-22T03:30:17;100.50;;;70.05;;
21034;SDS011;10676;50.848;3.272;2023-11-22T03:32:42;97.53;;;70.05;;
21034;SDS011;10676;50.848;3.272;2023-11-22T03:35:09;108.68;;;73.32;;
21034;SDS011;10676;50.848;3.272;2023-11-22T03:37:35;94.80;;;72.93;;
21034;SDS011;10676;50.848;3.272;2023-11-22T03:40:02;108.60;;;72.57;;
21034;SDS011;10676;50.848;3.272;2023-11-22T03:42:28;103.72;;;71.60;;
21034;SDS011;10676;50.848;3.272;2023-11-22T03:44:54;94.75;;;72.65;;
21034;SDS011;10676;50.848;3.272;2023-11-22T03:47:20;101.30;;;74.85;;
21034;SDS011;10676;50.848;3.272;2023-11-22T03:49:45;102.32;;;78.28;;
21034;SDS011;10676;50.848;3.272;2023-11-22T03:52:11;97.03;;;73.72;;
21034;SDS011;10676;50.848;3.272;2023-11-22T03:54:37;106.78;;;78.75;;
21034;SDS011;10676;50.848;3.272;2023-11-22T03:57:04;107.75;;;77.28;;
21034;SDS011;10676;50.848;3.272;2023-11-22T03:59:30;112.07;;;75.90;;
21034;SDS011;10676;50.848;3.272;2023-11-22T04:01:55;105.28;;;73.85;;
21034;SDS011;10676;50.848;3.272;2023-11-22T04:04:22;93.63;;;73.57;;
21034;SDS011;10676;50.848;3.272;2023-11-22T04:06:47;98.05;;;77.63;;
21034;SDS011;10676;50.848;3.272;2023-11-22T04:09:13;99.22;;;77.57;;
21034;SDS011;10676;50.848;3.272;2023-11-22T04:11:39;97.13;;;76.45;;
21034;SDS011;10676;50.848;3.272;2023-11-22T04:14:05;94.23;;;77.90;;
21034;SDS011;10676;50.848;3.272;2023-11-22T04:16:31;92.25;;;75.03;;
21034;SDS011;10676;50.848;3.272;2023-11-22T04:18:57;99.85;;;79.07;;
21034;SDS011;10676;50.848;3.272;2023-11-22T04:21:22;101.32;;;81.82;;
21034;SDS011;10676;50.848;3.272;2023-11-22T04:23:49;100.72;;;82.28;;
21034;SDS011;10676;50.848;3.272;2023-11-22T04:26:15;107.20;;;88.63;;
21034;SDS011;10676;50.848;3.272;2023-11-22T04:28:41;110.93;;;89.53;;
21034;SDS011;10676;50.848;3.272;2023-11-22T04:31:06;106.90;;;86.53;;
21034;SDS011;10676;50.848;3.272;2023-11-22T04:33:33;114.93;;;90.75;;
21034;SDS011;10676;50.848;3.272;2023-11-22T04:35:59;109.10;;;90.87;;
21034;SDS011;10676;50.848;3.272;2023-11-22T04:38:25;109.63;;;90.17;;
21034;SDS011;10676;50.848;3.272;2023-11-22T04:40:51;122.20;;;91.80;;
21034;SDS011;10676;50.848;3.272;2023-11-22T04:43:17;119.70;;;93.28;;
21034;SDS011;10676;50.848;3.272;2023-11-22T04:45:43;115.28;;;90.70;;
21034;SDS011;10676;50.848;3.272;2023-11-22T04:48:09;115.43;;;94.25;;
21034;SDS011;10676;50.848;3.272;2023-11-22T04:50:35;123.03;;;98.38;;
21034;SDS011;10676;50.848;3.272;2023-11-22T04:53:00;127.35;;;99.03;;
21034;SDS011;10676;50.848;3.272;2023-11-22T04:55:26;117.50;;;92.47;;
21034;SDS011;10676;50.848;3.272;2023-11-22T04:57:53;127.57;;;93.65;;
21034;SDS011;10676;50.848;3.272;2023-11-22T05:00:19;117.72;;;88.45;;
21034;SDS011;10676;50.848;3.272;2023-11-22T05:02:47;113.95;;;96.13;;
21034;SDS011;10676;50.848;3.272;2023-11-22T05:05:13;114.55;;;95.28;;
21034;SDS011;10676;50.848;3.272;2023-11-22T05:07:39;116.07;;;90.80;;
21034;SDS011;10676;50.848;3.272;2023-11-22T05:10:05;110.30;;;96.00;;
21034;SDS011;10676;50.848;3.272;2023-11-22T05:12:33;118.18;;;91.95;;
21034;SDS011;10676;50.848;3.272;2023-11-22T05:14:58;109.07;;;95.18;;
21034;SDS011;10676;50.848;3.272;2023-11-22T05:17:24;107.83;;;95.27;;
21034;SDS011;10676;50.848;3.272;2023-11-22T05:19:50;109.00;;;97.50;;
21034;SDS011;10676;50.848;3.272;2023-11-22T05:22:16;115.53;;;100.97;;
21034;SDS011;10676;50.848;3.272;2023-11-22T05:24:42;114.13;;;99.22;;
21034;SDS011;10676;50.848;3.272;2023-11-22T05:27:08;120.07;;;107.22;;
21034;SDS011;10676;50.848;3.272;2023-11-22T05:29:34;116.70;;;102.40;;
21034;SDS011;10676;50.848;3.272;2023-11-22T05:32:00;119.88;;;105.25;;
21034;SDS011;10676;50.848;3.272;2023-11-22T05:34:27;130.95;;;105.28;;
21034;SDS011;10676;50.848;3.272;2023-11-22T05:36:53;119.53;;;103.13;;
21034;SDS011;10676;50.848;3.272;2023-11-22T05:39:19;110.55;;;98.55;;
21034;SDS011;10676;50.848;3.272;2023-11-22T05:41:47;121.53;;;101.57;;
21034;SDS011;10676;50.848;3.272;2023-11-22T05:44:13;131.63;;;96.15;;
21034;SDS011;10676;50.848;3.272;2023-11-22T05:46:39;109.77;;;95.87;;
21034;SDS011;10676;50.848;3.272;2023-11-22T05:49:05;125.37;;;92.17;;
21034;SDS011;10676;50.848;3.272;2023-11-22T05:51:31;135.53;;;90.30;;
21034;SDS011;10676;50.848;3.272;2023-11-22T05:53:57;126.17;;;90.17;;
21034;SDS011;10676;50.848;3.272;2023-11-22T05:56:23;107.20;;;87.20;;
21034;SDS011;10676;50.848;3.272;2023-11-22T05:58:48;106.32;;;86.30;;
21034;SDS011;10676;50.848;3.272;2023-11-22T06:01:14;143.40;;;87.27;;
21034;SDS011;10676;50.848;3.272;2023-11-22T06:03:40;289.03;;;91.43;;
21034;SDS011;10676;50.848;3.272;2023-11-22T06:06:06;108.57;;;85.77;;
21034;SDS011;10676;50.848;3.272;2023-11-22T06:08:34;146.47;;;83.37;;
21034;SDS011;10676;50.848;3.272;2023-11-22T06:10:59;144.23;;;81.47;;
21034;SDS011;10676;50.848;3.272;2023-11-22T06:13:25;129.77;;;82.47;;
21034;SDS011;10676;50.848;3.272;2023-11-22T06:15:51;113.87;;;82.00;;
21034;SDS011;10676;50.848;3.272;2023-11-22T06:18:17;118.47;;;83.10;;
21034;SDS011;10676;50.848;3.272;2023-11-22T06:20:44;103.50;;;82.93;;
21034;SDS011;10676;50.848;3.272;2023-11-22T06:23:10;99.00;;;84.40;;
21034;SDS011;10676;50.848;3.272;2023-11-22T06:25:36;112.27;;;89.10;;
21034;SDS011;10676;50.848;3.272;2023-11-22T06:28:02;114.37;;;95.70;;
21034;SDS011;10676;50.848;3.272;2023-11-22T06:30:28;112.63;;;95.30;;
21034;SDS011;10676;50.848;3.272;2023-11-22T06:32:55;116.40;;;97.83;;
21034;SDS011;10676;50.848;3.272;2023-11-22T06:35:21;129.43;;;102.73;;
21034;SDS011;10676;50.848;3.272;2023-11-22T06:37:47;134.27;;;97.13;;
21034;SDS011;10676;50.848;3.272;2023-11-22T06:40:12;132.07;;;97.43;;
21034;SDS011;10676;50.848;3.272;2023-11-22T06:42:39;125.07;;;99.00;;
21034;SDS011;10676;50.848;3.272;2023-11-22T06:45:05;138.40;;;100.13;;
21034;SDS011;10676;50.848;3.272;2023-11-22T06:47:35;149.97;;;98.83;;
21034;SDS011;10676;50.848;3.272;2023-11-22T06:50:01;157.48;;;100.35;;
21034;SDS011;10676;50.848;3.272;2023-11-22T06:52:27;186.60;;;96.47;;
21034;SDS011;10676;50.848;3.272;2023-11-22T06:54:53;364.20;;;96.05;;
21034;SDS011;10676;50.848;3.272;2023-11-22T06:57:18;173.83;;;92.87;;
21034;SDS011;10676;50.848;3.272;2023-11-22T06:59:44;152.40;;;95.77;;
21034;SDS011;10676;50.848;3.272;2023-11-22T07:02:09;123.27;;;96.53;;
21034;SDS011;10676;50.848;3.272;2023-11-22T07:04:35;112.60;;;99.20;;
21034;SDS011;10676;50.848;3.272;2023-11-22T07:07:02;129.40;;;106.13;;
21034;SDS011;10676;50.848;3.272;2023-11-22T07:09:29;120.27;;;106.47;;
21034;SDS011;10676;50.848;3.272;2023-11-22T07:11:54;127.23;;;109.10;;
21034;SDS011;10676;50.848;3.272;2023-11-22T07:14:22;126.30;;;108.13;;
21034;SDS011;10676;50.848;3.272;2023-11-22T07:16:49;129.93;;;115.53;;
21034;SDS011;10676;50.848;3.272;2023-11-22T07:19:15;131.77;;;117.53;;
21034;SDS011;10676;50.848;3.272;2023-11-22T07:21:41;133.97;;;118.17;;
21034;SDS011;10676;50.848;3.272;2023-11-22T07:24:07;168.23;;;120.77;;
21034;SDS011;10676;50.848;3.272;2023-11-22T07:26:34;128.18;;;114.63;;
21034;SDS011;10676;50.848;3.272;2023-11-22T07:28:59;128.30;;;115.43;;
21034;SDS011;10676;50.848;3.272;2023-11-22T07:31:25;132.05;;;119.30;;
21034;SDS011;10676;50.848;3.272;2023-11-22T07:33:51;133.43;;;119.68;;
21034;SDS011;10676;50.848;3.272;2023-11-22T07:36:17;129.43;;;117.35;;
21034;SDS011;10676;50.848;3.272;2023-11-22T07:38:42;126.18;;;113.78;;
21034;SDS011;10676;50.848;3.272;2023-11-22T07:41:08;125.03;;;112.07;;
21034;SDS011;10676;50.848;3.272;2023-11-22T07:43:34;126.45;;;113.75;;
21034;SDS011;10676;50.848;3.272;2023-11-22T07:46:04;125.25;;;112.88;;
21034;SDS011;10676;50.848;3.272;2023-11-22T07:48:37;128.07;;;115.45;;
21034;SDS011;10676;50.848;3.272;2023-11-22T07:51:05;130.82;;;117.05;;
21034;SDS011;10676;50.848;3.272;2023-11-22T07:53:31;130.77;;;117.88;;
21034;SDS011;10676;50.848;3.272;2023-11-22T07:55:59;138.32;;;124.93;;
21034;SDS011;10676;50.848;3.272;2023-11-22T07:58:29;137.98;;;125.10;;
21034;SDS011;10676;50.848;3.272;2023-11-22T08:00:57;145.65;;;122.93;;
21034;SDS011;10676;50.848;3.272;2023-11-22T08:03:26;138.65;;;124.45;;
21034;SDS011;10676;50.848;3.272;2023-11-22T08:05:53;139.48;;;126.78;;
21034;SDS011;10676;50.848;3.272;2023-11-22T08:08:20;141.73;;;126.72;;
21034;SDS011;10676;50.848;3.272;2023-11-22T08:10:46;137.05;;;124.15;;
21034;SDS011;10676;50.848;3.272;2023-11-22T08:13:13;144.25;;;129.80;;
21034;SDS011;10676;50.848;3.272;2023-11-22T08:15:41;143.65;;;128.65;;
21034;SDS011;10676;50.848;3.272;2023-11-22T08:18:06;141.15;;;127.88;;
21034;SDS011;10676;50.848;3.272;2023-11-22T08:20:32;143.93;;;130.75;;
21034;SDS011;10676;50.848;3.272;2023-11-22T08:22:58;144.80;;;130.80;;
21034;SDS011;10676;50.848;3.272;2023-11-22T08:25:23;141.82;;;128.00;;
21034;SDS011;10676;50.848;3.272;2023-11-22T08:27:49;143.45;;;129.80;;
21034;SDS011;10676;50.848;3.272;2023-11-22T08:30:14;144.02;;;130.57;;
21034;SDS011;10676;50.848;3.272;2023-11-22T08:32:42;145.55;;;132.00;;
21034;SDS011;10676;50.848;3.272;2023-11-22T08:35:09;154.52;;;138.55;;
21034;SDS011;10676;50.848;3.272;2023-11-22T08:37:35;153.50;;;138.57;;
21034;SDS011;10676;50.848;3.272;2023-11-22T08:40:06;157.88;;;141.05;;
21034;SDS011;10676;50.848;3.272;2023-11-22T08:42:39;149.75;;;136.02;;
21034;SDS011;10676;50.848;3.272;2023-11-22T08:45:06;149.45;;;135.32;;
21034;SDS011;10676;50.848;3.272;2023-11-22T08:47:33;154.15;;;139.80;;
21034;SDS011;10676;50.848;3.272;2023-11-22T08:49:59;151.40;;;137.40;;
21034;SDS011;10676;50.848;3.272;2023-11-22T08:52:28;156.18;;;142.00;;
21034;SDS011;10676;50.848;3.272;2023-11-22T08:54:55;157.25;;;143.25;;
21034;SDS011;10676;50.848;3.272;2023-11-22T08:57:21;152.00;;;137.98;;
21034;SDS011;10676;50.848;3.272;2023-11-22T08:59:50;158.75;;;144.02;;
21034;SDS011;10676;50.848;3.272;2023-11-22T09:02:16;158.95;;;144.13;;
21034;SDS011;10676;50.848;3.272;2023-11-22T09:04:45;156.40;;;142.38;;
21034;SDS011;10676;50.848;3.272;2023-11-22T09:07:11;156.07;;;141.77;;
21034;SDS011;10676;50.848;3.272;2023-11-22T09:09:39;155.18;;;141.98;;
21034;SDS011;10676;50.848;3.272;2023-11-22T09:12:08;151.07;;;138.05;;
21034;SDS011;10676;50.848;3.272;2023-11-22T09:14:38;149.10;;;136.23;;
21034;SDS011;10676;50.848;3.272;2023-11-22T09:17:05;150.35;;;137.00;;
21034;SDS011;10676;50.848;3.272;2023-11-22T09:19:32;144.65;;;132.02;;
21034;SDS011;10676;50.848;3.272;2023-11-22T09:21:58;146.07;;;133.68;;
21034;SDS011;10676;50.848;3.272;2023-11-22T09:24:25;151.23;;;138.35;;
21034;SDS011;10676;50.848;3.272;2023-11-22T09:26:51;132.15;;;120.85;;
21034;SDS011;10676;50.848;3.272;2023-11-22T09:29:17;119.28;;;108.55;;
21034;SDS011;10676;50.848;3.272;2023-11-22T09:31:43;111.80;;;101.80;;
21034;SDS011;10676;50.848;3.272;2023-11-22T09:34:12;90.82;;;82.40;;
21034;SDS011;10676;50.848;3.272;2023-11-22T09:36:39;90.80;;;82.45;;
21034;SDS011;10676;50.848;3.272;2023-11-22T09:39:05;75.57;;;67.65;;
21034;SDS011;10676;50.848;3.272;2023-11-22T09:41:34;74.22;;;66.55;;
21034;SDS011;10676;50.848;3.272;2023-11-22T09:44:01;69.65;;;56.63;;
21034;SDS011;10676;50.848;3.272;2023-11-22T09:46:27;65.07;;;53.97;;
21034;SDS011;10676;50.848;3.272;2023-11-22T09:48:55;65.47;;;54.17;;
21034;SDS011;10676;50.848;3.272;2023-11-22T09:51:28;64.32;;;55.83;;
21034;SDS011;10676;50.848;3.272;2023-11-22T09:54:00;67.00;;;52.58;;
21034;SDS011;10676;50.848;3.272;2023-11-22T09:56:32;64.97;;;52.20;;
21034;SDS011;10676;50.848;3.272;2023-11-22T09:59:01;61.58;;;48.53;;
21034;SDS011;10676;50.848;3.272;2023-11-22T10:01:30;57.97;;;44.22;;
21034;SDS011;10676;50.848;3.272;2023-11-22T10:03:59;60.13;;;45.78;;
21034;SDS011;10676;50.848;3.272;2023-11-22T10:06:24;59.70;;;45.55;;
21034;SDS011;10676;50.848;3.272;2023-11-22T10:08:51;63.55;;;45.33;;
21034;SDS011;10676;50.848;3.272;2023-11-22T10:11:18;62.97;;;46.40;;
21034;SDS011;10676;50.848;3.272;2023-11-22T10:13:51;59.80;;;45.65;;
21034;SDS011;10676;50.848;3.272;2023-11-22T10:16:17;59.60;;;44.00;;
21034;SDS011;10676;50.848;3.272;2023-11-22T10:18:46;60.05;;;43.33;;
21034;SDS011;10676;50.848;3.272;2023-11-22T10:21:20;51.45;;;41.70;;
21034;SDS011;10676;50.848;3.272;2023-11-22T10:24:00;57.50;;;41.40;;
21034;SDS011;10676;50.848;3.272;2023-11-22T10:26:29;50.65;;;38.20;;
21034;SDS011;10676;50.848;3.272;2023-11-22T10:28:55;58.40;;;40.38;;
21034;SDS011;10676;50.848;3.272;2023-11-22T10:31:22;49.60;;;38.13;;
21034;SDS011;10676;50.848;3.272;2023-11-22T10:33:49;52.38;;;37.78;;
21034;SDS011;10676;50.848;3.272;2023-11-22T10:36:15;48.20;;;36.00;;
21034;SDS011;10676;50.848;3.272;2023-11-22T10:38:52;45.90;;;34.95;;
21034;SDS011;10676;50.848;3.272;2023-11-22T10:41:19;45.25;;;33.92;;
21034;SDS011;10676;50.848;3.272;2023-11-22T10:43:47;47.92;;;33.83;;
21034;SDS011;10676;50.848;3.272;2023-11-22T10:46:13;41.15;;;32.38;;
21034;SDS011;10676;50.848;3.272;2023-11-22T10:48:38;45.25;;;31.23;;
21034;SDS011;10676;50.848;3.272;2023-11-22T10:51:05;40.50;;;29.23;;
21034;SDS011;10676;50.848;3.272;2023-11-22T10:53:34;39.80;;;29.08;;
21034;SDS011;10676;50.848;3.272;2023-11-22T10:56:14;41.05;;;27.02;;
21034;SDS011;10676;50.848;3.272;2023-11-22T10:58:50;41.33;;;28.13;;
21034;SDS011;10676;50.848;3.272;2023-11-22T11:01:18;36.00;;;26.77;;
21034;SDS011;10676;50.848;3.272;2023-11-22T11:04:33;34.35;;;25.38;;
21034;SDS011;10676;50.848;3.272;2023-11-22T11:06:51;33.40;;;24.67;;
21034;SDS011;10676;50.848;3.272;2023-11-22T11:09:20;36.22;;;25.08;;
21034;SDS011;10676;50.848;3.272;2023-11-22T11:11:51;32.75;;;23.05;;
21034;SDS011;10676;50.848;3.272;2023-11-22T11:14:16;33.90;;;23.45;;
21034;SDS011;10676;50.848;3.272;2023-11-22T11:16:42;36.72;;;23.95;;
21034;SDS011;10676;50.848;3.272;2023-11-22T11:19:14;34.13;;;23.52;;
21034;SDS011;10676;50.848;3.272;2023-11-22T11:21:42;33.58;;;23.70;;
21034;SDS011;10676;50.848;3.272;2023-11-22T11:24:08;32.03;;;23.85;;
21034;SDS011;10676;50.848;3.272;2023-11-22T11:26:34;36.75;;;23.08;;
21034;SDS011;10676;50.848;3.272;2023-11-22T11:28:59;34.78;;;23.02;;
21034;SDS011;10676;50.848;3.272;2023-11-22T11:31:30;30.33;;;21.92;;
21034;SDS011;10676;50.848;3.272;2023-11-22T11:34:00;35.85;;;23.02;;
21034;SDS011;10676;50.848;3.272;2023-11-22T11:36:29;35.58;;;24.02;;
21034;SDS011;10676;50.848;3.272;2023-11-22T11:39:00;33.35;;;23.52;;
21034;SDS011;10676;50.848;3.272;2023-11-22T11:41:33;33.25;;;22.92;;
21034;SDS011;10676;50.848;3.272;2023-11-22T11:44:02;32.40;;;24.02;;
21034;SDS011;10676;50.848;3.272;2023-11-22T11:46:29;30.92;;;22.55;;
21034;SDS011;10676;50.848;3.272;2023-11-22T11:48:55;34.13;;;23.10;;
21034;SDS011;10676;50.848;3.272;2023-11-22T11:51:28;32.63;;;22.60;;
21034;SDS011;10676;50.848;3.272;2023-11-22T11:53:54;32.83;;;23.48;;
21034;SDS011;10676;50.848;3.272;2023-11-22T11:56:20;31.67;;;22.80;;
21034;SDS011;10676;50.848;3.272;2023-11-22T11:58:47;33.25;;;22.08;;
21034;SDS011;10676;50.848;3.272;2023-11-22T12:01:15;35.10;;;23.13;;
21034;SDS011;10676;50.848;3.272;2023-11-22T12:03:41;30.52;;;21.30;;
21034;SDS011;10676;50.848;3.272;2023-11-22T12:06:08;30.25;;;22.02;;
21034;SDS011;10676;50.848;3.272;2023-11-22T12:08:34;30.67;;;21.10;;
21034;SDS011;10676;50.848;3.272;2023-11-22T12:11:03;32.97;;;21.30;;
21034;SDS011;10676;50.848;3.272;2023-11-22T12:13:31;29.67;;;20.17;;
21034;SDS011;10676;50.848;3.272;2023-11-22T12:15:57;28.30;;;19.15;;
21034;SDS011;10676;50.848;3.272;2023-11-22T12:18:23;30.90;;;19.13;;
21034;SDS011;10676;50.848;3.272;2023-11-22T12:23:22;28.92;;;19.80;;
21034;SDS011;10676;50.848;3.272;2023-11-22T12:25:58;29.33;;;18.88;;
21034;SDS011;10676;50.848;3.272;2023-11-22T12:28:26;30.75;;;18.58;;
21034;SDS011;10676;50.848;3.272;2023-11-22T12:30:53;31.45;;;19.20;;
21034;SDS011;10676;50.848;3.272;2023-11-22T12:33:18;32.08;;;20.45;;
21034;SDS011;10676;50.848;3.272;2023-11-22T12:35:45;25.27;;;16.25;;
21034;SDS011;10676;50.848;3.272;2023-11-22T12:38:11;24.73;;;17.13;;
21034;SDS011;10676;50.848;3.272;2023-11-22T12:40:37;20.10;;;15.32;;
21034;SDS011;10676;50.848;3.272;2023-11-22T12:43:03;24.02;;;16.45;;
21034;SDS011;10676;50.848;3.272;2023-11-22T12:45:30;24.08;;;17.33;;
21034;SDS011;10676;50.848;3.272;2023-11-22T12:47:59;27.88;;;17.48;;
21034;SDS011;10676;50.848;3.272;2023-11-22T12:50:34;26.85;;;17.98;;
21034;SDS011;10676;50.848;3.272;2023-11-22T12:53:09;27.42;;;18.25;;
21034;SDS011;10676;50.848;3.272;2023-11-22T12:55:43;28.50;;;18.73;;
21034;SDS011;10676;50.848;3.272;2023-11-22T12:58:16;30.77;;;18.90;;
21034;SDS011;10676;50.848;3.272;2023-11-22T13:00:46;31.55;;;20.40;;
21034;SDS011;10676;50.848;3.272;2023-11-22T13:03:13;32.00;;;21.33;;
21034;SDS011;10676;50.848;3.272;2023-11-22T13:05:39;32.42;;;20.65;;
21034;SDS011;10676;50.848;3.272;2023-11-22T13:08:10;35.20;;;19.73;;
21034;SDS011;10676;50.848;3.272;2023-11-22T13:10:47;30.30;;;19.95;;
21034;SDS011;10676;50.848;3.272;2023-11-22T13:13:20;29.30;;;18.50;;
21034;SDS011;10676;50.848;3.272;2023-11-22T13:15:47;31.05;;;18.60;;
21034;SDS011;10676;50.848;3.272;2023-11-22T13:18:13;32.13;;;17.63;;
21034;SDS011;10676;50.848;3.272;2023-11-22T13:20:38;27.40;;;18.08;;
21034;SDS011;10676;50.848;3.272;2023-11-22T13:23:05;26.75;;;17.58;;
21034;SDS011;10676;50.848;3.272;2023-11-22T13:25:32;28.15;;;18.85;;
21034;SDS011;10676;50.848;3.272;2023-11-22T13:27:58;27.27;;;18.30;;
21034;SDS011;10676;50.848;3.272;2023-11-22T13:30:24;24.98;;;17.30;;
21034;SDS011;10676;50.848;3.272;2023-11-22T13:32:50;25.50;;;16.98;;
21034;SDS011;10676;50.848;3.272;2023-11-22T13:35:17;23.65;;;16.33;;
21034;SDS011;10676;50.848;3.272;2023-11-22T13:37:44;27.35;;;17.27;;
21034;SDS011;10676;50.848;3.272;2023-11-22T13:40:17;23.00;;;16.27;;
21034;SDS011;10676;50.848;3.272;2023-11-22T13:42:50;26.02;;;15.68;;
21034;SDS011;10676;50.848;3.272;2023-11-22T13:45:18;23.23;;;14.98;;
21034;SDS011;10676;50.848;3.272;2023-11-22T13:47:44;20.17;;;14.75;;
21034;SDS011;10676;50.848;3.272;2023-11-22T13:50:15;22.05;;;15.80;;
21034;SDS011;10676;50.848;3.272;2023-11-22T13:52:49;19.38;;;14.70;;
21034;SDS011;10676;50.848;3.272;2023-11-22T13:55:16;23.83;;;14.95;;
21034;SDS011;10676;50.848;3.272;2023-11-22T13:57:44;20.00;;;14.93;;
21034;SDS011;10676;50.848;3.272;2023-11-22T14:00:12;24.05;;;16.15;;
21034;SDS011;10676;50.848;3.272;2023-11-22T14:02:44;21.15;;;14.98;;
21034;SDS011;10676;50.848;3.272;2023-11-22T14:05:10;22.88;;;14.95;;
21034;SDS011;10676;50.848;3.272;2023-11-22T14:07:37;22.35;;;14.50;;
21034;SDS011;10676;50.848;3.272;2023-11-22T14:10:03;22.90;;;14.73;;
21034;SDS011;10676;50.848;3.272;2023-11-22T14:12:31;19.55;;;13.70;;
21034;SDS011;10676;50.848;3.272;2023-11-22T14:14:57;21.55;;;14.43;;